sensor_id;sensor_type;location;lat;lon;timestamp;P1;durP1;ratioP1;P2;durP2;ratioP2
3309;SDS011;1667;53.238;10.394;2023-06-19T00:00:54;8.70;;;7.90;;
3309;SDS011;1667;53.238;10.394;2023-06-19T00:05:53;7.03;;;6.43;;
3309;SDS011;1667;53.238;10.394;2023-06-19T00:10:54;8.10;;;6.83;;
3309;SDS011;1667;53.238;10.394;2023-06-19T00:15:52;8.43;;;7.33;;
3309;SDS011;1667;53.238;10.394;2023-06-19T00:20:50;8.57;;;7.77;;
3309;SDS011;1667;53.238;10.394;2023-06-19T00:25:52;7.27;;;6.47;;
3309;SDS011;1667;53.238;10.394;2023-06-19T00:30:50;7.70;;;6.93;;
3309;SDS011;1667;53.238;10.394;2023-06-19T00:35:50;11.33;;;8.30;;
3309;SDS011;1667;53.238;10.394;2023-06-19T00:40:48;12.43;;;8.20;;
3309;SDS011;1667;53.238;10.394;2023-06-19T00:45:48;8.80;;;7.90;;
3309;SDS011;1667;53.238;10.394;2023-06-19T00:50:48;9.53;;;8.53;;
3309;SDS011;1667;53.238;10.394;2023-06-19T00:55:47;8.43;;;7.53;;
3309;SDS011;1667;53.238;10.394;2023-06-19T01:00:49;9.60;;;8.37;;
3309;SDS011;1667;53.238;10.394;2023-06-19T01:06:05;8.33;;;7.60;;
3309;SDS011;1667;53.238;10.394;2023-06-19T01:11:08;8.70;;;8.00;;
3309;SDS011;1667;53.238;10.394;2023-06-19T01:16:23;8.63;;;7.77;;
3309;SDS011;1667;53.238;10.394;2023-06-19T01:21:23;9.30;;;8.40;;
3309;SDS011;1667;53.238;10.394;2023-06-19T01:26:25;12.10;;;8.33;;
3309;SDS011;1667;53.238;10.394;2023-06-19T01:31:27;10.20;;;9.20;;
3309;SDS011;1667;53.238;10.394;2023-06-19T01:36:29;9.80;;;8.70;;
3309;SDS011;1667;53.238;10.394;2023-06-19T01:41:30;10.53;;;7.37;;
3309;SDS011;1667;53.238;10.394;2023-06-19T01:46:31;8.70;;;7.90;;
3309;SDS011;1667;53.238;10.394;2023-06-19T01:51:32;9.03;;;8.07;;
3309;SDS011;1667;53.238;10.394;2023-06-19T01:56:32;8.50;;;7.60;;
3309;SDS011;1667;53.238;10.394;2023-06-19T02:01:31;9.10;;;8.27;;
3309;SDS011;1667;53.238;10.394;2023-06-19T02:06:30;9.00;;;8.10;;
3309;SDS011;1667;53.238;10.394;2023-06-19T02:11:28;9.33;;;8.47;;
3309;SDS011;1667;53.238;10.394;2023-06-19T02:16:28;8.83;;;7.97;;
3309;SDS011;1667;53.238;10.394;2023-06-19T02:21:27;10.03;;;9.13;;
3309;SDS011;1667;53.238;10.394;2023-06-19T02:26:25;9.00;;;7.73;;
3309;SDS011;1667;53.238;10.394;2023-06-19T02:31:25;8.70;;;7.80;;
3309;SDS011;1667;53.238;10.394;2023-06-19T02:36:25;9.83;;;8.83;;
3309;SDS011;1667;53.238;10.394;2023-06-19T02:41:25;8.37;;;7.57;;
3309;SDS011;1667;53.238;10.394;2023-06-19T02:46:23;12.40;;;8.27;;
3309;SDS011;1667;53.238;10.394;2023-06-19T02:51:22;10.00;;;9.00;;
3309;SDS011;1667;53.238;10.394;2023-06-19T02:56:22;7.23;;;6.53;;
3309;SDS011;1667;53.238;10.394;2023-06-19T03:01:22;10.27;;;9.07;;
3309;SDS011;1667;53.238;10.394;2023-06-19T03:06:20;10.03;;;8.93;;
3309;SDS011;1667;53.238;10.394;2023-06-19T03:11:19;10.33;;;8.40;;
3309;SDS011;1667;53.238;10.394;2023-06-19T03:16:19;8.23;;;7.53;;
3309;SDS011;1667;53.238;10.394;2023-06-19T03:21:19;9.13;;;8.33;;
3309;SDS011;1667;53.238;10.394;2023-06-19T03:26:20;8.87;;;8.03;;
3309;SDS011;1667;53.238;10.394;2023-06-19T03:31:22;8.13;;;7.37;;
3309;SDS011;1667;53.238;10.394;2023-06-19T03:36:22;10.33;;;9.20;;
3309;SDS011;1667;53.238;10.394;2023-06-19T03:41:22;10.80;;;8.10;;
3309;SDS011;1667;53.238;10.394;2023-06-19T03:46:24;11.00;;;8.63;;
3309;SDS011;1667;53.238;10.394;2023-06-19T03:51:23;8.87;;;8.07;;
3309;SDS011;1667;53.238;10.394;2023-06-19T03:56:21;8.97;;;8.00;;
3309;SDS011;1667;53.238;10.394;2023-06-19T04:01:20;9.47;;;8.57;;
3309;SDS011;1667;53.238;10.394;2023-06-19T04:06:20;10.37;;;9.17;;
3309;SDS011;1667;53.238;10.394;2023-06-19T04:11:19;9.07;;;8.27;;
3309;SDS011;1667;53.238;10.394;2023-06-19T04:16:18;9.40;;;8.50;;
3309;SDS011;1667;53.238;10.394;2023-06-19T04:21:17;11.23;;;9.37;;
3309;SDS011;1667;53.238;10.394;2023-06-19T04:26:17;9.73;;;8.73;;
3309;SDS011;1667;53.238;10.394;2023-06-19T04:31:18;9.37;;;8.47;;
3309;SDS011;1667;53.238;10.394;2023-06-19T04:36:16;8.93;;;8.10;;
3309;SDS011;1667;53.238;10.394;2023-06-19T04:41:16;9.47;;;8.57;;
3309;SDS011;1667;53.238;10.394;2023-06-19T04:46:15;9.70;;;8.67;;
3309;SDS011;1667;53.238;10.394;2023-06-19T04:51:17;12.13;;;9.13;;
3309;SDS011;1667;53.238;10.394;2023-06-19T04:56:19;8.77;;;7.90;;
3309;SDS011;1667;53.238;10.394;2023-06-19T05:01:17;10.27;;;8.30;;
3309;SDS011;1667;53.238;10.394;2023-06-19T05:06:19;8.70;;;7.90;;
3309;SDS011;1667;53.238;10.394;2023-06-19T05:11:19;9.23;;;8.37;;
3309;SDS011;1667;53.238;10.394;2023-06-19T05:16:18;9.23;;;8.10;;
3309;SDS011;1667;53.238;10.394;2023-06-19T05:21:17;9.53;;;8.53;;
3309;SDS011;1667;53.238;10.394;2023-06-19T05:26:16;9.17;;;8.27;;
3309;SDS011;1667;53.238;10.394;2023-06-19T05:31:16;10.40;;;8.80;;
3309;SDS011;1667;53.238;10.394;2023-06-19T05:36:15;8.47;;;7.67;;
3309;SDS011;1667;53.238;10.394;2023-06-19T05:41:13;7.30;;;6.60;;
3309;SDS011;1667;53.238;10.394;2023-06-19T05:46:13;8.47;;;7.57;;
3309;SDS011;1667;53.238;10.394;2023-06-19T05:51:13;8.50;;;7.80;;
3309;SDS011;1667;53.238;10.394;2023-06-19T05:56:12;10.10;;;9.00;;
3309;SDS011;1667;53.238;10.394;2023-06-19T06:01:10;9.90;;;8.90;;
3309;SDS011;1667;53.238;10.394;2023-06-19T06:06:09;10.63;;;8.90;;
3309;SDS011;1667;53.238;10.394;2023-06-19T06:11:09;8.30;;;7.50;;
3309;SDS011;1667;53.238;10.394;2023-06-19T06:16:07;9.47;;;8.50;;
3309;SDS011;1667;53.238;10.394;2023-06-19T06:21:06;8.33;;;7.53;;
3309;SDS011;1667;53.238;10.394;2023-06-19T06:26:05;7.43;;;6.73;;
3309;SDS011;1667;53.238;10.394;2023-06-19T06:31:05;8.83;;;7.97;;
3309;SDS011;1667;53.238;10.394;2023-06-19T06:36:03;12.97;;;9.47;;
3309;SDS011;1667;53.238;10.394;2023-06-19T06:41:04;10.87;;;9.80;;
3309;SDS011;1667;53.238;10.394;2023-06-19T06:46:02;8.43;;;7.60;;
3309;SDS011;1667;53.238;10.394;2023-06-19T06:51:02;9.93;;;8.93;;
3309;SDS011;1667;53.238;10.394;2023-06-19T06:56:01;9.40;;;7.47;;
3309;SDS011;1667;53.238;10.394;2023-06-19T07:01:00;8.63;;;7.83;;
3309;SDS011;1667;53.238;10.394;2023-06-19T07:06:00;8.47;;;7.67;;
3309;SDS011;1667;53.238;10.394;2023-06-19T07:10:59;10.03;;;9.03;;
3309;SDS011;1667;53.238;10.394;2023-06-19T07:15:58;12.23;;;10.00;;
3309;SDS011;1667;53.238;10.394;2023-06-19T07:20:58;10.60;;;9.50;;
3309;SDS011;1667;53.238;10.394;2023-06-19T07:25:58;9.70;;;8.70;;
3309;SDS011;1667;53.238;10.394;2023-06-19T07:30:56;10.50;;;8.83;;
3309;SDS011;1667;53.238;10.394;2023-06-19T07:35:55;9.40;;;8.50;;
3309;SDS011;1667;53.238;10.394;2023-06-19T07:40:53;9.70;;;8.73;;
3309;SDS011;1667;53.238;10.394;2023-06-19T07:45:53;10.13;;;9.13;;
3309;SDS011;1667;53.238;10.394;2023-06-19T07:50:53;9.30;;;8.33;;
3309;SDS011;1667;53.238;10.394;2023-06-19T07:55:51;11.60;;;10.07;;
3309;SDS011;1667;53.238;10.394;2023-06-19T08:00:50;8.93;;;8.07;;
3309;SDS011;1667;53.238;10.394;2023-06-19T08:05:50;9.03;;;8.13;;
3309;SDS011;1667;53.238;10.394;2023-06-19T08:10:49;10.53;;;8.93;;
3309;SDS011;1667;53.238;10.394;2023-06-19T08:15:47;9.90;;;8.90;;
3309;SDS011;1667;53.238;10.394;2023-06-19T08:20:46;8.80;;;7.77;;
3309;SDS011;1667;53.238;10.394;2023-06-19T08:25:46;7.27;;;6.67;;
3309;SDS011;1667;53.238;10.394;2023-06-19T08:30:45;11.10;;;9.63;;
3309;SDS011;1667;53.238;10.394;2023-06-19T08:35:43;10.60;;;8.63;;
3309;SDS011;1667;53.238;10.394;2023-06-19T08:40:43;8.27;;;7.47;;
3309;SDS011;1667;53.238;10.394;2023-06-19T08:45:43;10.83;;;8.10;;
3309;SDS011;1667;53.238;10.394;2023-06-19T08:50:52;8.17;;;7.37;;
3309;SDS011;1667;53.238;10.394;2023-06-19T08:55:54;9.73;;;8.83;;
3309;SDS011;1667;53.238;10.394;2023-06-19T09:00:54;9.40;;;8.50;;
3309;SDS011;1667;53.238;10.394;2023-06-19T09:05:54;10.83;;;8.00;;
3309;SDS011;1667;53.238;10.394;2023-06-19T09:10:55;11.70;;;8.10;;
3309;SDS011;1667;53.238;10.394;2023-06-19T09:15:57;9.47;;;8.50;;
3309;SDS011;1667;53.238;10.394;2023-06-19T09:20:58;7.53;;;6.73;;
3309;SDS011;1667;53.238;10.394;2023-06-19T09:25:58;8.87;;;7.97;;
3309;SDS011;1667;53.238;10.394;2023-06-19T09:37:57;10.60;;;8.23;;
3309;SDS011;1667;53.238;10.394;2023-06-19T09:42:58;9.70;;;8.00;;
3309;SDS011;1667;53.238;10.394;2023-06-19T09:47:59;9.50;;;8.60;;
3309;SDS011;1667;53.238;10.394;2023-06-19T09:53:20;10.30;;;9.30;;
3309;SDS011;1667;53.238;10.394;2023-06-19T09:58:21;9.47;;;8.47;;
3309;SDS011;1667;53.238;10.394;2023-06-19T10:03:20;10.97;;;9.20;;
3309;SDS011;1667;53.238;10.394;2023-06-19T10:08:28;8.13;;;7.43;;
3309;SDS011;1667;53.238;10.394;2023-06-19T10:13:33;10.80;;;9.73;;
3309;SDS011;1667;53.238;10.394;2023-06-19T10:18:43;11.33;;;8.23;;
3309;SDS011;1667;53.238;10.394;2023-06-19T10:30:39;10.30;;;9.40;;
3309;SDS011;1667;53.238;10.394;2023-06-19T10:35:38;10.03;;;9.03;;
3309;SDS011;1667;53.238;10.394;2023-06-19T10:40:38;9.33;;;8.30;;
3309;SDS011;1667;53.238;10.394;2023-06-19T10:45:40;8.00;;;7.30;;
3309;SDS011;1667;53.238;10.394;2023-06-19T10:50:41;7.37;;;6.77;;
3309;SDS011;1667;53.238;10.394;2023-06-19T10:55:40;7.00;;;6.40;;
3309;SDS011;1667;53.238;10.394;2023-06-19T11:00:40;8.47;;;7.70;;
3309;SDS011;1667;53.238;10.394;2023-06-19T11:05:42;8.63;;;7.87;;
3309;SDS011;1667;53.238;10.394;2023-06-19T11:10:41;8.10;;;7.30;;
3309;SDS011;1667;53.238;10.394;2023-06-19T11:15:41;7.77;;;6.90;;
3309;SDS011;1667;53.238;10.394;2023-06-19T11:20:44;8.60;;;7.90;;
3309;SDS011;1667;53.238;10.394;2023-06-19T11:25:44;7.77;;;7.10;;
3309;SDS011;1667;53.238;10.394;2023-06-19T11:30:46;7.30;;;6.60;;
3309;SDS011;1667;53.238;10.394;2023-06-19T11:35:47;8.20;;;7.40;;
3309;SDS011;1667;53.238;10.394;2023-06-19T11:40:47;9.20;;;8.30;;
3309;SDS011;1667;53.238;10.394;2023-06-19T11:45:48;7.90;;;7.13;;
3309;SDS011;1667;53.238;10.394;2023-06-19T11:50:49;11.40;;;7.07;;
3309;SDS011;1667;53.238;10.394;2023-06-19T11:55:48;7.63;;;6.90;;
3309;SDS011;1667;53.238;10.394;2023-06-19T12:00:48;6.90;;;6.30;;
3309;SDS011;1667;53.238;10.394;2023-06-19T12:05:47;7.00;;;6.40;;
3309;SDS011;1667;53.238;10.394;2023-06-19T12:10:46;6.83;;;6.23;;
3309;SDS011;1667;53.238;10.394;2023-06-19T12:15:46;7.37;;;6.67;;
3309;SDS011;1667;53.238;10.394;2023-06-19T12:20:46;7.80;;;7.00;;
3309;SDS011;1667;53.238;10.394;2023-06-19T12:25:44;7.47;;;6.83;;
3309;SDS011;1667;53.238;10.394;2023-06-19T12:30:43;8.50;;;7.70;;
3309;SDS011;1667;53.238;10.394;2023-06-19T12:35:42;8.67;;;7.80;;
3309;SDS011;1667;53.238;10.394;2023-06-19T12:40:42;7.73;;;7.03;;
3309;SDS011;1667;53.238;10.394;2023-06-19T12:45:40;7.00;;;6.40;;
3309;SDS011;1667;53.238;10.394;2023-06-19T12:50:39;8.13;;;7.33;;
3309;SDS011;1667;53.238;10.394;2023-06-19T12:55:38;10.40;;;7.03;;
3309;SDS011;1667;53.238;10.394;2023-06-19T13:00:58;6.80;;;6.20;;
3309;SDS011;1667;53.238;10.394;2023-06-19T13:05:56;7.67;;;6.97;;
3309;SDS011;1667;53.238;10.394;2023-06-19T13:10:55;6.07;;;5.47;;
3309;SDS011;1667;53.238;10.394;2023-06-19T13:15:54;5.60;;;5.20;;
3309;SDS011;1667;53.238;10.394;2023-06-19T13:20:54;5.30;;;4.80;;
3309;SDS011;1667;53.238;10.394;2023-06-19T13:25:52;5.30;;;4.50;;
3309;SDS011;1667;53.238;10.394;2023-06-19T13:30:51;5.53;;;5.03;;
3309;SDS011;1667;53.238;10.394;2023-06-19T13:35:50;4.67;;;4.27;;
3309;SDS011;1667;53.238;10.394;2023-06-19T13:40:50;4.23;;;3.93;;
3309;SDS011;1667;53.238;10.394;2023-06-19T13:45:49;4.85;;;4.18;;
3309;SDS011;1667;53.238;10.394;2023-06-19T13:50:47;4.57;;;4.20;;
3309;SDS011;1667;53.238;10.394;2023-06-19T13:55:47;4.35;;;3.83;;
3309;SDS011;1667;53.238;10.394;2023-06-19T14:00:46;3.97;;;3.67;;
3309;SDS011;1667;53.238;10.394;2023-06-19T14:05:45;3.70;;;3.40;;
3309;SDS011;1667;53.238;10.394;2023-06-19T14:10:44;3.07;;;2.80;;
3309;SDS011;1667;53.238;10.394;2023-06-19T14:15:42;3.00;;;2.77;;
3309;SDS011;1667;53.238;10.394;2023-06-19T14:20:43;3.37;;;2.80;;
3309;SDS011;1667;53.238;10.394;2023-06-19T14:25:41;6.00;;;2.80;;
3309;SDS011;1667;53.238;10.394;2023-06-19T14:30:40;2.73;;;2.53;;
3309;SDS011;1667;53.238;10.394;2023-06-19T14:35:39;2.33;;;2.20;;
3309;SDS011;1667;53.238;10.394;2023-06-19T14:40:39;2.57;;;2.37;;
3309;SDS011;1667;53.238;10.394;2023-06-19T14:45:38;2.80;;;2.60;;
3309;SDS011;1667;53.238;10.394;2023-06-19T14:50:37;2.33;;;2.23;;
3309;SDS011;1667;53.238;10.394;2023-06-19T14:55:36;3.20;;;3.00;;
3309;SDS011;1667;53.238;10.394;2023-06-19T15:00:37;2.10;;;2.00;;
3309;SDS011;1667;53.238;10.394;2023-06-19T15:05:35;2.23;;;2.10;;
3309;SDS011;1667;53.238;10.394;2023-06-19T15:10:34;2.73;;;2.53;;
3309;SDS011;1667;53.238;10.394;2023-06-19T15:15:32;2.20;;;2.10;;
3309;SDS011;1667;53.238;10.394;2023-06-19T15:20:32;3.53;;;2.10;;
3309;SDS011;1667;53.238;10.394;2023-06-19T15:25:31;2.50;;;2.30;;
3309;SDS011;1667;53.238;10.394;2023-06-19T15:30:29;2.20;;;2.10;;
3309;SDS011;1667;53.238;10.394;2023-06-19T15:35:28;2.50;;;2.30;;
3309;SDS011;1667;53.238;10.394;2023-06-19T15:40:28;2.20;;;2.10;;
3309;SDS011;1667;53.238;10.394;2023-06-19T15:45:27;2.13;;;2.00;;
3309;SDS011;1667;53.238;10.394;2023-06-19T15:50:25;2.30;;;2.20;;
3309;SDS011;1667;53.238;10.394;2023-06-19T15:55:24;2.90;;;2.47;;
3309;SDS011;1667;53.238;10.394;2023-06-19T16:00:25;1.90;;;1.80;;
3309;SDS011;1667;53.238;10.394;2023-06-19T16:05:24;2.30;;;1.90;;
3309;SDS011;1667;53.238;10.394;2023-06-19T16:10:23;2.40;;;2.30;;
3309;SDS011;1667;53.238;10.394;2023-06-19T16:15:22;2.50;;;2.30;;
3309;SDS011;1667;53.238;10.394;2023-06-19T16:20:26;3.03;;;2.83;;
3309;SDS011;1667;53.238;10.394;2023-06-19T16:25:24;6.17;;;2.97;;
3309;SDS011;1667;53.238;10.394;2023-06-19T16:30:23;2.67;;;2.47;;
3309;SDS011;1667;53.238;10.394;2023-06-19T16:35:22;2.80;;;2.60;;
3309;SDS011;1667;53.238;10.394;2023-06-19T16:40:23;2.20;;;2.10;;
3309;SDS011;1667;53.238;10.394;2023-06-19T16:45:22;2.57;;;2.47;;
3309;SDS011;1667;53.238;10.394;2023-06-19T16:50:24;2.43;;;2.23;;
3309;SDS011;1667;53.238;10.394;2023-06-19T16:55:24;2.93;;;2.73;;
3309;SDS011;1667;53.238;10.394;2023-06-19T17:00:23;2.20;;;2.00;;
3309;SDS011;1667;53.238;10.394;2023-06-19T17:05:22;3.33;;;3.10;;
3309;SDS011;1667;53.238;10.394;2023-06-19T17:10:23;3.03;;;2.83;;
3309;SDS011;1667;53.238;10.394;2023-06-19T17:15:23;2.43;;;2.23;;
3309;SDS011;1667;53.238;10.394;2023-06-19T17:20:27;2.77;;;2.57;;
3309;SDS011;1667;53.238;10.394;2023-06-19T17:31:27;4.57;;;3.00;;
3309;SDS011;1667;53.238;10.394;2023-06-19T17:36:26;3.30;;;3.00;;
3309;SDS011;1667;53.238;10.394;2023-06-19T17:41:24;2.60;;;2.40;;
3309;SDS011;1667;53.238;10.394;2023-06-19T17:46:23;4.60;;;4.07;;
3309;SDS011;1667;53.238;10.394;2023-06-19T17:51:23;3.10;;;2.80;;
3309;SDS011;1667;53.238;10.394;2023-06-19T17:56:22;4.87;;;4.47;;
3309;SDS011;1667;53.238;10.394;2023-06-19T18:01:21;6.40;;;5.90;;
3309;SDS011;1667;53.238;10.394;2023-06-19T18:12:27;6.20;;;5.60;;
3309;SDS011;1667;53.238;10.394;2023-06-19T18:17:25;5.83;;;5.33;;
3309;SDS011;1667;53.238;10.394;2023-06-19T18:22:24;7.60;;;6.50;;
3309;SDS011;1667;53.238;10.394;2023-06-19T18:27:22;6.00;;;5.50;;
3309;SDS011;1667;53.238;10.394;2023-06-19T18:32:22;6.87;;;6.27;;
3309;SDS011;1667;53.238;10.394;2023-06-19T18:37:21;6.00;;;5.50;;
3309;SDS011;1667;53.238;10.394;2023-06-19T18:42:20;7.23;;;6.63;;
3309;SDS011;1667;53.238;10.394;2023-06-19T18:47:20;6.77;;;6.23;;
3309;SDS011;1667;53.238;10.394;2023-06-19T18:52:20;7.40;;;6.70;;
3309;SDS011;1667;53.238;10.394;2023-06-19T18:57:18;7.20;;;6.60;;
3309;SDS011;1667;53.238;10.394;2023-06-19T19:02:18;7.60;;;7.00;;
3309;SDS011;1667;53.238;10.394;2023-06-19T19:07:17;7.70;;;6.90;;
3309;SDS011;1667;53.238;10.394;2023-06-19T19:12:17;6.67;;;6.10;;
3309;SDS011;1667;53.238;10.394;2023-06-19T19:17:16;7.17;;;6.30;;
3309;SDS011;1667;53.238;10.394;2023-06-19T19:22:15;7.50;;;6.80;;
3309;SDS011;1667;53.238;10.394;2023-06-19T19:27:14;7.50;;;6.20;;
3309;SDS011;1667;53.238;10.394;2023-06-19T19:32:14;7.30;;;6.60;;
3309;SDS011;1667;53.238;10.394;2023-06-19T19:37:13;7.40;;;6.70;;
3309;SDS011;1667;53.238;10.394;2023-06-19T19:42:12;7.03;;;6.43;;
3309;SDS011;1667;53.238;10.394;2023-06-19T19:47:11;7.17;;;6.40;;
3309;SDS011;1667;53.238;10.394;2023-06-19T19:52:11;6.00;;;5.50;;
3309;SDS011;1667;53.238;10.394;2023-06-19T19:57:10;5.40;;;4.77;;
3309;SDS011;1667;53.238;10.394;2023-06-19T20:02:08;6.23;;;5.73;;
3309;SDS011;1667;53.238;10.394;2023-06-19T20:07:07;4.90;;;4.50;;
3309;SDS011;1667;53.238;10.394;2023-06-19T20:12:08;7.50;;;6.70;;
3309;SDS011;1667;53.238;10.394;2023-06-19T20:17:17;7.23;;;6.53;;
3309;SDS011;1667;53.238;10.394;2023-06-19T20:22:16;8.20;;;6.10;;
3309;SDS011;1667;53.238;10.394;2023-06-19T20:27:16;7.60;;;6.90;;
3309;SDS011;1667;53.238;10.394;2023-06-19T20:32:14;7.97;;;6.97;;
3309;SDS011;1667;53.238;10.394;2023-06-19T20:37:14;7.67;;;6.87;;
3309;SDS011;1667;53.238;10.394;2023-06-19T20:42:12;7.40;;;6.70;;
3309;SDS011;1667;53.238;10.394;2023-06-19T20:47:15;9.17;;;8.27;;
3309;SDS011;1667;53.238;10.394;2023-06-19T20:52:15;8.20;;;7.10;;
3309;SDS011;1667;53.238;10.394;2023-06-19T20:57:13;8.43;;;7.63;;
3309;SDS011;1667;53.238;10.394;2023-06-19T21:02:12;9.07;;;8.20;;
3309;SDS011;1667;53.238;10.394;2023-06-19T21:07:12;8.50;;;7.60;;
3309;SDS011;1667;53.238;10.394;2023-06-19T21:12:10;9.37;;;8.27;;
3309;SDS011;1667;53.238;10.394;2023-06-19T21:17:08;8.57;;;7.77;;
3309;SDS011;1667;53.238;10.394;2023-06-19T21:22:07;9.43;;;7.00;;
3309;SDS011;1667;53.238;10.394;2023-06-19T21:27:07;7.40;;;6.70;;
3309;SDS011;1667;53.238;10.394;2023-06-19T21:32:06;9.00;;;8.10;;
3309;SDS011;1667;53.238;10.394;2023-06-19T21:37:05;8.10;;;7.30;;
3309;SDS011;1667;53.238;10.394;2023-06-19T21:42:03;8.87;;;6.87;;
3309;SDS011;1667;53.238;10.394;2023-06-19T21:47:07;8.77;;;7.17;;
3309;SDS011;1667;53.238;10.394;2023-06-19T21:52:06;8.40;;;7.33;;
3309;SDS011;1667;53.238;10.394;2023-06-19T21:57:05;8.53;;;7.67;;
3309;SDS011;1667;53.238;10.394;2023-06-19T22:02:03;10.33;;;8.10;;
3309;SDS011;1667;53.238;10.394;2023-06-19T22:07:04;8.50;;;6.73;;
3309;SDS011;1667;53.238;10.394;2023-06-19T22:12:03;9.47;;;6.67;;
3309;SDS011;1667;53.238;10.394;2023-06-19T22:17:03;8.53;;;7.10;;
3309;SDS011;1667;53.238;10.394;2023-06-19T22:22:04;7.77;;;6.80;;
3309;SDS011;1667;53.238;10.394;2023-06-19T22:27:03;8.70;;;6.60;;
3309;SDS011;1667;53.238;10.394;2023-06-19T22:32:02;8.80;;;7.90;;
3309;SDS011;1667;53.238;10.394;2023-06-19T22:37:01;7.40;;;6.60;;
3309;SDS011;1667;53.238;10.394;2023-06-19T22:42:02;7.73;;;6.93;;
3309;SDS011;1667;53.238;10.394;2023-06-19T22:47:01;7.93;;;7.13;;
3309;SDS011;1667;53.238;10.394;2023-06-19T22:51:59;8.13;;;6.20;;
3309;SDS011;1667;53.238;10.394;2023-06-19T22:57:01;9.97;;;7.63;;
3309;SDS011;1667;53.238;10.394;2023-06-19T23:02:00;12.07;;;7.83;;
3309;SDS011;1667;53.238;10.394;2023-06-19T23:06:58;8.23;;;7.40;;
3309;SDS011;1667;53.238;10.394;2023-06-19T23:11:58;9.47;;;8.00;;
3309;SDS011;1667;53.238;10.394;2023-06-19T23:16:59;8.33;;;6.80;;
3309;SDS011;1667;53.238;10.394;2023-06-19T23:21:57;8.27;;;7.30;;
3309;SDS011;1667;53.238;10.394;2023-06-19T23:26:56;11.97;;;7.63;;
3309;SDS011;1667;53.238;10.394;2023-06-19T23:31:55;7.97;;;7.00;;
3309;SDS011;1667;53.238;10.394;2023-06-19T23:36:57;9.30;;;7.50;;
3309;SDS011;1667;53.238;10.394;2023-06-19T23:41:56;8.67;;;7.73;;
3309;SDS011;1667;53.238;10.394;2023-06-19T23:46:57;11.03;;;8.30;;
3309;SDS011;1667;53.238;10.394;2023-06-19T23:51:57;11.43;;;7.60;;
3309;SDS011;1667;53.238;10.394;2023-06-19T23:56:56;11.30;;;8.37;;
